• Join FlightAware (Why Join?)
  • Login
  • US Flag 
04:23AM EDT


 

Airport Tracker/Info


-or-


 

Live Flight TrackerFlight Track Log ✈ CSN6702 ✈ 02-Aug-2014 ✈ ZSZS / HSN - ZGSZ / SZX

Flight Track Log - Related Links

Times and Time Zones

All times are in EDT time to prevent confusion due to time zone crossing. See the CSN6702 flight status page for this flight to view local times or setup timezone preferences in your user account.

Time Position Orientation Groundspeed Altitude Reporting Facility
EDT Latitude Longitude Course Direction KTS MPH feet Rate Location/Type
06:20AM 29.4737 121.7684 228° Southwest  Level Estimated
06:21AM 29.4077 121.6840 228° Southwest  Level Estimated
06:22AM 29.3417 121.5997 228° Southwest  Level Estimated
06:23AM 29.2756 121.5156 228° Southwest  Level Estimated
06:24AM 29.2094 121.4315 228° Southwest  Level Estimated
06:25AM 29.1432 121.3475 228° Southwest  Level Estimated
06:26AM 29.0770 121.2637 228° Southwest  Level Estimated
06:27AM 29.0107 121.1800 228° Southwest  Level Estimated
06:28AM 28.9443 121.0963 228° Southwest  Level Estimated
06:29AM 28.8779 121.0128 228° Southwest  Level Estimated
06:30AM 28.8114 120.9294 228° Southwest  Level Estimated
06:31AM 28.7449 120.8461 228° Southwest  Level Estimated
06:32AM 28.6784 120.7629 228° Southwest  Level Estimated
06:33AM 28.6118 120.6798 228° Southwest  Level Estimated
06:34AM 28.5451 120.5968 228° Southwest  Level Estimated
06:35AM 28.4784 120.5139 228° Southwest  Level Estimated
06:36AM 28.4116 120.4311 227° Southwest  Level Estimated
06:37AM 28.3448 120.3484 227° Southwest  Level Estimated
06:38AM 28.2779 120.2659 227° Southwest  Level Estimated
06:39AM 28.2110 120.1834 227° Southwest  Level Estimated
06:40AM 28.1441 120.1010 227° Southwest  Level Estimated
06:41AM 28.0770 120.0188 227° Southwest  Level Estimated
06:42AM 28.0100 119.9366 227° Southwest  Level Estimated
06:43AM 27.9429 119.8546 227° Southwest  Level Estimated
06:44AM 27.8757 119.7726 227° Southwest  Level Estimated
06:45AM 27.8085 119.6907 227° Southwest  Level Estimated
06:46AM 27.7412 119.6090 227° Southwest  Level Estimated
06:47AM 27.6739 119.5273 227° Southwest  Level Estimated
06:48AM 27.6066 119.4458 227° Southwest  Level Estimated
06:49AM 27.5392 119.3643 227° Southwest  Level Estimated
06:50AM 27.4717 119.2830 227° Southwest  Level Estimated
06:51AM 27.4042 119.2017 227° Southwest  Level Estimated
06:52AM 27.3367 119.1206 227° Southwest  Level Estimated
06:53AM 27.2691 119.0395 227° Southwest  Level Estimated
06:54AM 27.2015 118.9586 227° Southwest  Level Estimated
06:55AM 27.1338 118.8777 227° Southwest  Level Estimated
06:56AM 27.0661 118.7969 227° Southwest  Level Estimated
06:57AM 26.9983 118.7163 227° Southwest  Level Estimated
06:58AM 26.9305 118.6357 227° Southwest  Level Estimated
06:59AM 26.8626 118.5552 227° Southwest  Level Estimated
07:00AM 26.7947 118.4749 227° Southwest  Level Estimated
07:01AM 26.7267 118.3946 227° Southwest  Level Estimated
07:02AM 26.6587 118.3144 227° Southwest  Level Estimated
07:03AM 26.5907 118.2343 226° Southwest  Level Estimated
07:04AM 26.5226 118.1543 226° Southwest  Level Estimated
07:05AM 26.4545 118.0744 226° Southwest  Level Estimated
07:06AM 26.3863 117.9947 226° Southwest  Level Estimated
07:07AM 26.3181 117.9149 226° Southwest  Level Estimated
07:08AM 26.2498 117.8353 226° Southwest  Level Estimated
07:09AM 26.1815 117.7558 226° Southwest  Level Estimated
07:10AM 26.1131 117.6764 226° Southwest  Level Estimated
07:11AM 26.0447 117.5971 226° Southwest  Level Estimated
07:12AM 25.9763 117.5178 226° Southwest  Level Estimated
07:13AM 25.9078 117.4387 226° Southwest  Level Estimated
07:14AM 25.8393 117.3596 226° Southwest  Level Estimated
07:15AM 25.7707 117.2806 226° Southwest  Level Estimated
07:16AM 25.7021 117.2018 226° Southwest  Level Estimated
07:17AM 25.6334 117.1230 226° Southwest  Level Estimated
07:18AM 25.5647 117.0443 226° Southwest  Level Estimated
07:19AM 25.4960 116.9657 226° Southwest  Level Estimated
07:20AM 25.4272 116.8872 226° Southwest  Level Estimated
07:21AM 25.3584 116.8088 226° Southwest  Level Estimated
07:22AM 25.2895 116.7304 226° Southwest  Level Estimated
07:23AM 25.2206 116.6522 226° Southwest  Level Estimated
07:24AM 25.1517 116.5740 226° Southwest  Level Estimated
07:25AM 25.0827 116.4960 226° Southwest  Level Estimated
07:26AM 25.0136 116.4180 226° Southwest  Level Estimated
07:27AM 24.9446 116.3401 226° Southwest  Level Estimated
07:28AM 24.8755 116.2623 226° Southwest  Level Estimated
07:29AM 24.8063 116.1846 226° Southwest  Level Estimated
07:30AM 24.7371 116.1069 226° Southwest  Level Estimated
07:31AM 24.6679 116.0294 226° Southwest  Level Estimated
07:32AM 24.5986 115.9519 225° Southwest  Level Estimated
07:33AM 24.5293 115.8746 225° Southwest  Level Estimated
07:34AM 24.4599 115.7973 225° Southwest  Level Estimated
07:35AM 24.3906 115.7201 225° Southwest  Level Estimated
07:36AM 24.3211 115.6430 225° Southwest  Level Estimated
07:37AM 24.2517 115.5659 225° Southwest  Level Estimated
07:38AM 24.1822 115.4890 225° Southwest  Level Estimated
07:39AM 24.1126 115.4121 225° Southwest  Level Estimated
07:40AM 24.0430 115.3353 225° Southwest  Level Estimated
07:41AM 23.9734 115.2586 225° Southwest  Level Estimated
07:42AM 23.9037 115.1820 225° Southwest  Level Estimated
07:43AM 23.8340 115.1055 225° Southwest  Level Estimated
07:44AM 23.7643 115.0291 225° Southwest  Level Estimated
07:45AM 23.6945 114.9527 225° Southwest  Level Estimated
07:46AM 23.6247 114.8764 225° Southwest  Level Estimated
07:47AM 23.5549 114.8002 225° Southwest  Level Estimated
07:48AM 23.4850 114.7241 225° Southwest  Level Estimated
07:49AM 23.4151 114.6480 225° Southwest  Level Estimated
07:50AM 23.3451 114.5721 225° Southwest  Level Estimated
07:51AM 23.2751 114.4962 225° Southwest  Level Estimated
07:52AM 23.2051 114.4204 225° Southwest  Level Estimated
07:53AM 23.1350 114.3447 225° Southwest  Level Estimated
07:54AM 23.0649 114.2690 225° Southwest  Level Estimated
07:55AM 22.9948 114.1934 225° Southwest  Level Estimated
07:56AM 22.9246 114.1180 225° Southwest  Level Estimated
07:57AM 22.8544 114.0425 225° Southwest  Level Estimated
07:58AM 22.7842 113.9672 225° Southwest  Level Estimated
07:59AM 22.7139 113.8920 225° Southwest  Level Estimated
08:00AM 22.6436 113.8168 225° Southwest  Level Estimated
08:01AM 22.6395 113.8124 225° Southwest  Level Estimated
08:02AM 22.6395 113.8124 North  Level Estimated
08:03AM 22.6395 113.8124 North  Level Estimated
08:04AM 22.6395 113.8124 North  Level Estimated
08:05AM 22.6395 113.8124 North  Level Estimated
08:06AM 22.6395 113.8124 North  Level Estimated
08:07AM 22.6395 113.8124 North  Level Estimated
08:08AM 22.6395 113.8124 North  Level Estimated
08:09AM 22.6395 113.8124 North  Level Estimated